Time;durP1;ratioP1;P1;durP2;ratioP2;P2;SDS_P1;SDS_P2;PMS_P1;PMS_P2;Temp;Humidity;BMP_temperature;BMP_pressure;BME280_temperature;BME280_humidity;BME280_pressure;Samples;Min_cycle;Max_cycle;Signal;HPM_P1;HPM_P2
2023/04/09 00:01:05;;;;;;;53.05;44.05;;;;;;;8.46;100.00;102456.53;5052507;28;20439;-56
2023/04/09 00:03:31;;;;;;;53.17;44.00;;;;;;;8.42;100.00;102449.41;5051230;28;20400;-56
2023/04/09 00:05:56;;;;;;;48.70;40.75;;;;;;;8.41;100.00;102452.75;5052444;28;20025;-56
2023/04/09 00:08:24;;;;;;;50.88;40.97;;;;;;;8.40;100.00;102451.88;5052002;28;20025;-56
2023/04/09 00:10:50;;;;;;;45.22;38.20;;;;;;;8.37;100.00;102440.50;5051884;28;20025;-56
2023/04/09 00:13:16;;;;;;;46.53;38.80;;;;;;;8.37;100.00;102451.66;5052133;28;20164;-56
2023/04/09 00:15:46;;;;;;;46.72;39.55;;;;;;;8.36;100.00;102439.59;5052348;28;20132;-56
2023/04/09 00:18:12;;;;;;;45.33;38.22;;;;;;;8.34;100.00;102443.78;5051622;28;20025;-55
2023/04/09 00:20:38;;;;;;;45.70;39.35;;;;;;;8.37;100.00;102440.50;5051799;28;20108;-56
2023/04/09 00:23:03;;;;;;;46.95;38.28;;;;;;;8.34;100.00;102430.03;5052412;28;20048;-56
2023/04/09 00:25:29;;;;;;;44.58;37.55;;;;;;;8.33;100.00;102433.41;5051417;28;20043;-56
2023/04/09 00:27:55;;;;;;;46.17;37.85;;;;;;;8.31;100.00;102437.53;5054071;28;20017;-56
2023/04/09 00:30:20;;;;;;;46.78;38.53;;;;;;;8.32;100.00;102432.50;5055830;28;20086;-56
2023/04/09 00:32:46;;;;;;;45.22;37.85;;;;;;;8.32;100.00;102437.63;5055248;28;20423;-56
2023/04/09 00:35:11;;;;;;;46.00;37.75;;;;;;;8.30;100.00;102440.91;5055908;28;20350;-56
2023/04/09 00:37:37;;;;;;;45.72;38.05;;;;;;;8.31;100.00;102445.25;5055479;28;20028;-56
2023/04/09 00:40:03;;;;;;;46.17;38.45;;;;;;;8.30;100.00;102433.19;5055348;28;20025;-56
2023/04/09 00:42:36;;;;;;;44.97;37.72;;;;;;;8.27;100.00;102433.88;5055302;28;20440;-56
2023/04/09 00:45:02;;;;;;;48.92;39.15;;;;;;;8.27;100.00;102430.44;5055582;28;20181;-56
2023/04/09 00:47:29;;;;;;;49.30;40.17;;;;;;;8.25;100.00;102427.78;5054748;28;20052;-56
2023/04/09 00:49:54;;;;;;;48.58;39.22;;;;;;;8.25;100.00;102430.34;5055829;28;20032;-56
2023/04/09 00:52:20;;;;;;;48.35;39.35;;;;;;;8.26;100.00;102431.22;5055120;28;20021;-56
2023/04/09 00:54:47;;;;;;;47.55;39.38;;;;;;;8.25;100.00;102438.06;5055017;28;20376;-56
2023/04/09 00:57:14;;;;;;;49.37;40.07;;;;;;;8.29;100.00;102426.28;5055647;28;20061;-56
2023/04/09 00:59:39;;;;;;;51.90;41.70;;;;;;;8.26;100.00;102426.09;5054273;28;20032;-56
2023/04/09 01:02:05;;;;;;;50.47;40.95;;;;;;;8.27;100.00;102423.59;5055267;28;20083;-56
2023/04/09 01:04:30;;;;;;;49.47;39.17;;;;;;;8.28;100.00;102429.66;5054741;28;20120;-56
2023/04/09 01:07:20;;;;;;;53.00;41.45;;;;;;;8.31;100.00;102429.84;5054463;28;20366;-56
2023/04/09 01:09:52;;;;;;;49.15;40.08;;;;;;;8.25;100.00;102425.22;5055353;28;20112;-56
2023/04/09 01:12:37;;;;;;;53.25;41.17;;;;;;;8.28;100.00;102421.94;5055137;28;20036;-56
2023/04/09 01:15:14;;;;;;;54.15;43.15;;;;;;;8.24;100.00;102416.59;5054809;28;20021;-56
2023/04/09 01:17:48;;;;;;;53.25;41.97;;;;;;;8.26;100.00;102414.13;5054780;28;20469;-56
2023/04/09 01:20:21;;;;;;;52.40;41.40;;;;;;;8.21;100.00;102411.28;5054769;28;20037;-56
2023/04/09 01:23:08;;;;;;;53.78;41.92;;;;;;;8.28;100.00;102409.09;5054412;28;20056;-56
2023/04/09 01:25:51;;;;;;;55.00;43.00;;;;;;;8.24;100.00;102411.47;5054794;28;20032;-56
2023/04/09 01:28:19;;;;;;;56.28;42.85;;;;;;;8.20;100.00;102409.50;5053812;28;20043;-56
2023/04/09 01:30:50;;;;;;;52.63;42.42;;;;;;;8.19;100.00;102407.69;5054830;28;20025;-56
2023/04/09 01:33:18;;;;;;;52.25;42.58;;;;;;;8.19;100.00;102410.28;5054585;28;20427;-56
2023/04/09 01:35:46;;;;;;;55.42;42.22;;;;;;;8.19;100.00;102411.97;5053946;28;20107;-56
2023/04/09 01:38:13;;;;;;;55.42;43.13;;;;;;;8.19;100.00;102405.13;5054794;28;20040;-56
2023/04/09 01:40:39;;;;;;;55.70;44.33;;;;;;;8.18;100.00;102403.34;5053405;28;20033;-56
2023/04/09 01:43:06;;;;;;;57.97;43.72;;;;;;;8.19;100.00;102405.13;5054266;28;20029;-56
2023/04/09 01:45:33;;;;;;;58.78;44.45;;;;;;;8.16;100.00;102404.94;5054187;28;20025;-56
2023/04/09 01:47:59;;;;;;;54.10;42.15;;;;;;;8.16;100.00;102404.94;5054354;28;20032;-56
2023/04/09 01:50:25;;;;;;;55.47;43.85;;;;;;;8.17;100.00;102403.25;5053555;28;20025;-55
2023/04/09 01:52:51;;;;;;;58.22;45.20;;;;;;;8.15;100.00;102410.00;5054522;28;20036;-56
2023/04/09 01:55:16;;;;;;;58.05;44.40;;;;;;;8.14;100.00;102406.50;5053954;28;20144;-56
2023/04/09 01:57:41;;;;;;;56.95;43.45;;;;;;;8.14;100.00;102403.94;5053786;28;20028;-56
2023/04/09 02:00:08;;;;;;;60.05;45.30;;;;;;;8.12;100.00;102402.97;5054196;28;20037;-56
2023/04/09 02:02:44;;;;;;;57.90;45.03;;;;;;;8.12;100.00;102405.53;5053764;28;20370;-56
2023/04/09 02:05:14;;;;;;;58.70;44.67;;;;;;;8.10;100.00;102403.66;5054352;28;20029;-56
2023/04/09 02:07:44;;;;;;;55.60;43.50;;;;;;;8.10;100.00;102398.53;5053945;28;20056;-56
2023/04/09 02:10:12;;;;;;;60.15;45.22;;;;;;;8.11;100.00;102402.84;5053373;28;20481;-56
2023/04/09 02:12:41;;;;;;;58.08;45.22;;;;;;;8.09;100.00;102407.91;5053948;28;20028;-56
2023/04/09 02:15:07;;;;;;;60.58;45.00;;;;;;;8.08;100.00;102400.97;5053933;28;20162;-56
2023/04/09 02:17:32;;;;;;;57.92;43.72;;;;;;;8.11;100.00;102397.72;5053040;28;20100;-56
2023/04/09 02:19:57;;;;;;;59.25;45.58;;;;;;;8.13;100.00;102399.59;5053975;28;20044;-56
2023/04/09 02:22:23;;;;;;;60.88;46.25;;;;;;;8.15;100.00;102398.03;5053508;28;20032;-56
2023/04/09 02:24:48;;;;;;;61.22;46.40;;;;;;;8.14;100.00;102392.81;5052963;28;20387;-56
2023/04/09 02:27:13;;;;;;;63.72;47.00;;;;;;;8.13;100.00;102389.31;5053754;28;20021;-56
2023/04/09 02:29:39;;;;;;;60.83;46.08;;;;;;;8.11;100.00;102396.06;5053142;28;20107;-56
2023/04/09 02:32:05;;;;;;;63.75;48.25;;;;;;;8.09;100.00;102395.06;5053314;28;20102;-56
2023/04/09 02:34:30;;;;;;;59.55;46.15;;;;;;;8.07;100.00;102388.94;5053191;28;20429;-55
2023/04/09 02:36:56;;;;;;;63.55;47.50;;;;;;;8.07;100.00;102400.09;5053443;28;20025;-56
2023/04/09 02:39:21;;;;;;;68.05;49.58;;;;;;;8.08;100.00;102385.56;5052695;28;20029;-56
2023/04/09 02:41:46;;;;;;;64.18;48.80;;;;;;;8.07;100.00;102384.69;5053370;28;20028;-56
2023/04/09 02:44:12;;;;;;;67.72;48.80;;;;;;;8.06;100.00;102390.63;5053167;28;20056;-56
2023/04/09 02:46:38;;;;;;;69.45;50.45;;;;;;;8.04;100.00;102384.50;5053029;28;20025;-56
2023/04/09 02:49:03;;;;;;;71.60;50.63;;;;;;;8.03;100.00;102387.88;5053295;28;20468;-56
2023/04/09 02:51:28;;;;;;;69.65;50.58;;;;;;;8.05;100.00;102380.25;5052801;28;20082;-56
2023/04/09 02:53:54;;;;;;;70.55;50.85;;;;;;;8.06;100.00;102390.63;5052899;28;20041;-56
2023/04/09 02:56:19;;;;;;;70.25;51.35;;;;;;;8.03;100.00;102377.59;5052967;28;20021;-56
2023/04/09 02:58:45;;;;;;;72.47;51.28;;;;;;;8.02;100.00;102382.63;5052863;28;20032;-56
2023/04/09 03:01:10;;;;;;;70.22;51.72;;;;;;;7.99;100.00;102375.63;5052354;28;20051;-56
2023/04/09 03:03:37;;;;;;;76.28;53.08;;;;;;;8.04;100.00;102379.38;5052825;28;20053;-56
2023/04/09 03:06:03;;;;;;;79.03;54.47;;;;;;;8.01;100.00;102375.72;5052397;28;20029;-56
2023/04/09 03:08:28;;;;;;;73.18;54.03;;;;;;;8.00;100.00;102368.78;5052794;28;20024;-56
2023/04/09 03:10:54;;;;;;;74.90;54.85;;;;;;;7.97;100.00;102371.19;5053126;28;20056;-56
2023/04/09 03:13:19;;;;;;;77.43;54.10;;;;;;;7.98;100.00;102370.34;5051803;28;20060;-56
2023/04/09 03:15:44;;;;;;;75.50;53.63;;;;;;;7.97;100.00;102372.06;5052978;28;20033;-56
2023/04/09 03:18:10;;;;;;;73.78;53.50;;;;;;;7.96;100.00;102380.53;5053100;28;20461;-56
2023/04/09 03:20:38;;;;;;;75.75;53.85;;;;;;;8.00;100.00;102373.94;5051849;28;20043;-56
2023/04/09 03:23:03;;;;;;;82.97;56.85;;;;;;;7.98;100.00;102371.28;5052942;28;20100;-56
2023/04/09 03:25:29;;;;;;;80.25;56.63;;;;;;;7.97;100.00;102366.03;5052560;28;20104;-56
2023/04/09 03:27:54;;;;;;;76.32;54.45;;;;;;;7.93;100.00;102364.94;5052044;28;20067;-56
2023/04/09 03:30:19;;;;;;;82.68;56.90;;;;;;;7.91;100.00;102370.00;5052427;28;20017;-56
2023/04/09 03:32:45;;;;;;;80.32;56.60;;;;;;;7.89;100.00;102363.84;5052870;28;20465;-56
2023/04/09 03:35:10;;;;;;;79.88;56.15;;;;;;;7.88;100.00;102363.75;5052062;28;20060;-56
2023/04/09 03:37:35;;;;;;;84.13;57.35;;;;;;;7.89;100.00;102356.16;5052351;28;20098;-56
2023/04/09 03:40:01;;;;;;;81.63;57.70;;;;;;;7.86;100.00;102357.63;5052476;28;20040;-56
2023/04/09 03:42:27;;;;;;;91.80;61.53;;;;;;;7.85;100.00;102359.31;5051877;28;20166;-56
2023/04/09 03:44:53;;;;;;;88.70;59.03;;;;;;;7.86;100.00;102355.97;5052351;28;20380;-56
2023/04/09 03:47:18;;;;;;;90.65;60.97;;;;;;;7.85;100.00;102351.63;5052115;28;20025;-55
2023/04/09 03:49:44;;;;;;;88.45;60.65;;;;;;;7.85;100.00;102351.63;5052022;28;20028;-56
2023/04/09 03:52:09;;;;;;;91.20;60.40;;;;;;;7.82;100.00;102351.41;5052647;28;20112;-56
2023/04/09 03:54:34;;;;;;;92.53;59.85;;;;;;;7.85;100.00;102351.63;5052120;28;20194;-56
2023/04/09 03:57:00;;;;;;;85.03;58.35;;;;;;;7.80;100.00;102337.59;5051891;28;20029;-56
2023/04/09 03:59:25;;;;;;;82.07;58.17;;;;;;;7.78;100.00;102346.84;5052025;28;20037;-56
2023/04/09 04:01:50;;;;;;;84.72;57.75;;;;;;;7.76;100.00;102351.03;5052492;28;20427;-56
2023/04/09 04:04:16;;;;;;;84.72;57.03;;;;;;;7.75;100.00;102344.09;5055437;28;20052;-56
2023/04/09 04:06:41;;;;;;;81.32;55.78;;;;;;;7.78;100.00;102348.53;5056438;28;20056;-56
2023/04/09 04:09:06;;;;;;;82.53;55.20;;;;;;;7.73;100.00;102355.94;5056198;28;20037;-56
2023/04/09 04:11:32;;;;;;;73.45;51.33;;;;;;;7.70;100.00;102353.19;5055471;28;20416;-56
2023/04/09 04:13:57;;;;;;;70.22;48.45;;;;;;;7.65;100.00;102346.84;5056273;28;20468;-56
2023/04/09 04:16:22;;;;;;;71.22;48.05;;;;;;;7.65;100.00;102349.41;5055441;28;20023;-56
2023/04/09 04:18:48;;;;;;;70.88;48.97;;;;;;;7.57;100.00;102357.50;5056128;28;20044;-56
2023/04/09 04:21:14;;;;;;;72.40;48.58;;;;;;;7.56;100.00;102353.13;5056228;28;20051;-56
2023/04/09 04:23:39;;;;;;;71.75;48.47;;;;;;;7.52;100.00;102356.28;5054893;28;20063;-56
2023/04/09 04:26:09;;;;;;;72.35;48.95;;;;;;;7.51;100.00;102357.06;5056044;28;20033;-56
2023/04/09 04:28:38;;;;;;;75.43;49.33;;;;;;;7.48;100.00;102353.44;5055736;28;20105;-56
2023/04/09 04:31:09;;;;;;;75.90;49.45;;;;;;;7.44;100.00;102352.34;5055360;28;20025;-56
2023/04/09 04:33:34;;;;;;;73.75;50.55;;;;;;;7.43;100.00;102349.69;5055796;28;20113;-56
2023/04/09 04:36:06;;;;;;;76.13;51.13;;;;;;;7.41;100.00;102354.69;5055685;28;20053;-56
2023/04/09 04:38:33;;;;;;;75.50;49.92;;;;;;;7.37;100.00;102350.16;5055069;28;20029;-56
2023/04/09 04:40:58;;;;;;;73.70;50.85;;;;;;;7.36;100.00;102349.28;5055722;28;20033;-56
2023/04/09 04:43:23;;;;;;;71.05;47.92;;;;;;;7.31;100.00;102349.72;5056064;28;20104;-56
2023/04/09 04:45:49;;;;;;;75.40;48.88;;;;;;;7.30;100.00;102353.09;5055266;28;20384;-56
2023/04/09 04:48:14;;;;;;;68.53;48.53;;;;;;;7.22;100.00;102350.03;5055745;28;20128;-56
2023/04/09 04:50:39;;;;;;;73.20;49.95;;;;;;;7.17;100.00;102357.38;5055171;28;20128;-56
2023/04/09 04:53:05;;;;;;;77.20;50.05;;;;;;;7.10;100.00;102360.31;5055022;28;20070;-55
2023/04/09 04:55:30;;;;;;;69.80;47.08;;;;;;;6.97;100.00;102355.16;5055198;28;20388;-56
2023/04/09 04:57:55;;;;;;;74.93;50.20;;;;;;;6.87;100.00;102357.09;5055427;28;20441;-56
2023/04/09 05:00:20;;;;;;;72.00;48.97;;;;;;;6.83;100.00;102360.22;5054725;28;20090;-56
2023/04/09 05:02:46;;;;;;;73.28;49.70;;;;;;;6.74;100.00;102354.47;5055341;28;20498;-56
2023/04/09 05:05:11;;;;;;;73.10;49.28;;;;;;;6.63;100.00;102360.50;5055286;28;20025;-56
2023/04/09 05:07:36;;;;;;;67.38;47.17;;;;;;;6.51;100.00;102352.84;5054546;28;20017;-56
2023/04/09 05:10:02;;;;;;;72.72;48.28;;;;;;;6.37;100.00;102351.88;5055065;28;20033;-56
2023/04/09 05:12:30;;;;;;;74.80;50.10;;;;;;;6.27;100.00;102360.56;5054837;28;20353;-56
2023/04/09 05:14:56;;;;;;;71.22;50.55;;;;;;;6.20;100.00;102355.81;5053571;28;20060;-56
2023/04/09 05:17:22;;;;;;;77.03;51.05;;;;;;;6.03;100.00;102349.44;5054906;28;20451;-56
2023/04/09 05:19:51;;;;;;;74.90;50.05;;;;;;;5.89;100.00;102356.97;5054379;28;20029;-56
2023/04/09 05:22:17;;;;;;;77.93;50.58;;;;;;;5.87;100.00;102350.84;5054815;28;20021;-56
2023/04/09 05:24:42;;;;;;;76.55;52.08;;;;;;;5.87;100.00;102347.41;5054959;28;20407;-56
2023/04/09 05:27:07;;;;;;;74.45;50.60;;;;;;;5.82;100.00;102354.75;5054378;28;20025;-56
2023/04/09 05:29:32;;;;;;;78.15;50.72;;;;;;;5.75;100.00;102355.09;5054550;28;20468;-56
2023/04/09 05:31:58;;;;;;;80.10;51.92;;;;;;;5.72;100.00;102354.84;5054810;28;20017;-56
2023/04/09 05:34:23;;;;;;;77.65;51.35;;;;;;;5.70;100.00;102357.28;5053832;28;20029;-56
2023/04/09 05:36:48;;;;;;;84.70;53.25;;;;;;;5.69;100.00;102362.31;5054774;28;20027;-56
2023/04/09 05:39:14;;;;;;;76.63;51.72;;;;;;;5.64;100.00;102358.50;5054493;28;20092;-56
2023/04/09 05:41:40;;;;;;;81.18;51.75;;;;;;;5.62;100.00;102360.97;5054012;28;20100;-56
2023/04/09 05:44:06;;;;;;;78.70;51.75;;;;;;;5.68;100.00;102360.53;5055288;28;20033;-56
2023/04/09 05:46:31;;;;;;;82.57;53.40;;;;;;;5.64;100.00;102354.28;5054024;28;20086;-56
2023/04/09 05:48:56;;;;;;;76.85;53.03;;;;;;;5.63;100.00;102359.28;5054060;28;20025;-56
2023/04/09 05:51:21;;;;;;;79.82;52.63;;;;;;;5.60;100.00;102362.50;5054039;28;20366;-55
2023/04/09 05:53:47;;;;;;;82.43;53.97;;;;;;;5.57;100.00;102358.06;5054331;28;20033;-56
2023/04/09 05:56:17;;;;;;;81.28;54.08;;;;;;;5.59;100.00;102366.75;5053874;28;20013;-56
2023/04/09 05:58:42;;;;;;;80.10;53.28;;;;;;;5.50;100.00;102360.03;5054209;28;20480;-56
2023/04/09 06:01:07;;;;;;;82.72;54.80;;;;;;;5.51;100.00;102362.72;5053889;28;20025;-55
2023/04/09 06:03:33;;;;;;;81.55;53.58;;;;;;;5.48;100.00;102361.63;5053331;28;20047;-56
2023/04/09 06:05:58;;;;;;;79.90;54.92;;;;;;;5.50;100.00;102365.16;5054127;28;20029;-56
2023/04/09 06:08:23;;;;;;;85.50;52.55;;;;;;;5.50;100.00;102366.06;5053557;28;20032;-56
2023/04/09 06:10:49;;;;;;;82.20;53.40;;;;;;;5.55;100.00;102377.53;5053700;28;20025;-56
2023/04/09 06:13:14;;;;;;;80.60;53.20;;;;;;;5.55;100.00;102374.97;5054165;28;20103;-56
2023/04/09 06:15:40;;;;;;;84.40;54.40;;;;;;;5.57;100.00;102373.41;5053524;28;20399;-56
2023/04/09 06:18:05;;;;;;;85.47;55.13;;;;;;;5.60;100.00;102372.75;5053441;28;20048;-56
2023/04/09 06:20:30;;;;;;;86.25;55.70;;;;;;;5.61;100.00;102374.53;5053494;28;20064;-56
2023/04/09 06:22:56;;;;;;;81.60;52.47;;;;;;;5.64;100.00;102373.88;5053518;28;20029;-56
2023/04/09 06:25:21;;;;;;;80.75;54.15;;;;;;;5.72;100.00;102377.88;5052873;28;20029;-56
2023/04/09 06:27:46;;;;;;;85.57;56.08;;;;;;;5.72;100.00;102372.75;5053605;28;20040;-56
2023/04/09 06:30:12;;;;;;;86.53;55.22;;;;;;;5.74;100.00;102372.09;5053037;28;20021;-56
2023/04/09 06:32:37;;;;;;;81.35;52.85;;;;;;;5.78;100.00;102378.31;5053438;28;20033;-56
2023/04/09 06:35:03;;;;;;;80.18;53.08;;;;;;;5.83;100.00;102376.13;5053740;28;20086;-56
2023/04/09 06:37:28;;;;;;;87.68;53.92;;;;;;;5.85;100.00;102379.66;5052447;28;20033;-56
2023/04/09 06:39:54;;;;;;;82.30;53.42;;;;;;;5.89;100.00;102382.56;5053339;28;20025;-52
2023/04/09 06:42:19;;;;;;;81.57;53.33;;;;;;;5.93;100.00;102389.69;5053164;28;20036;-56
2023/04/09 06:44:45;;;;;;;80.55;52.50;;;;;;;5.97;100.00;102393.38;5052788;28;20025;-56
2023/04/09 06:47:10;;;;;;;79.43;52.75;;;;;;;6.04;100.00;102387.97;5053488;28;20037;-56
2023/04/09 06:49:36;;;;;;;82.63;55.33;;;;;;;6.10;100.00;102387.50;5052669;28;20117;-56
2023/04/09 06:52:02;;;;;;;81.95;55.22;;;;;;;6.18;100.00;102386.38;5052652;28;20037;-56
2023/04/09 06:54:28;;;;;;;78.53;53.30;;;;;;;6.29;100.00;102388.81;5052814;28;20128;-56
2023/04/09 06:56:53;;;;;;;81.63;52.05;;;;;;;6.36;100.00;102388.50;5052995;28;20104;-56
2023/04/09 06:59:18;;;;;;;84.35;56.75;;;;;;;6.42;100.00;102388.94;5052416;28;20043;-56
2023/04/09 07:01:43;;;;;;;84.47;53.78;;;;;;;6.42;100.00;102383.81;5053093;28;20060;-56
2023/04/09 07:04:09;;;;;;;82.93;53.97;;;;;;;6.50;100.00;102392.94;5052488;28;20041;-56
2023/04/09 07:06:34;;;;;;;81.78;54.20;;;;;;;6.58;100.00;102396.94;5052342;28;20388;-56
2023/04/09 07:09:00;;;;;;;74.43;52.70;;;;;;;6.71;100.00;102393.56;5052957;28;20021;-56
2023/04/09 07:11:25;;;;;;;79.40;54.10;;;;;;;6.75;100.00;102397.22;5052717;28;20387;-56
2023/04/09 07:13:50;;;;;;;76.10;53.00;;;;;;;6.88;100.00;102388.72;5052675;28;20032;-55
2023/04/09 07:16:16;;;;;;;77.53;53.22;;;;;;;6.95;100.00;102385.81;5052708;28;20028;-56
2023/04/09 07:18:41;;;;;;;82.07;55.05;;;;;;;6.96;100.00;102390.16;5052643;28;20025;-55
2023/04/09 07:21:06;;;;;;;79.53;54.90;;;;;;;7.08;100.00;102395.22;5052370;28;20027;-55
2023/04/09 07:23:35;;;;;;;78.18;55.17;;;;;;;7.09;100.00;102399.59;5052352;28;20051;-56
2023/04/09 07:26:02;;;;;;;80.35;55.33;;;;;;;7.18;100.00;102404.41;5052869;28;20025;-56
2023/04/09 07:28:27;;;;;;;82.10;56.85;;;;;;;7.24;100.00;102399.72;5052209;28;20029;-56
2023/04/09 07:30:53;;;;;;;79.15;55.97;;;;;;;7.43;100.00;102403.56;5052991;28;20108;-56
2023/04/09 07:33:18;;;;;;;80.10;54.60;;;;;;;7.55;100.00;102402.69;5051843;28;20376;-56
2023/04/09 07:35:44;;;;;;;78.30;56.75;;;;;;;7.50;100.00;102404.06;5052848;28;20024;-56
2023/04/09 07:38:09;;;;;;;83.85;58.63;;;;;;;7.63;100.00;102400.66;5051924;28;20461;-57
2023/04/09 07:40:35;;;;;;;79.07;56.83;;;;;;;7.79;100.00;102397.41;5051520;28;20172;-56
2023/04/09 07:43:01;;;;;;;80.70;58.00;;;;;;;7.91;100.00;102393.09;5052976;28;20021;-55
2023/04/09 07:45:26;;;;;;;81.05;57.80;;;;;;;7.96;100.00;102400.19;5052333;28;20109;-55
2023/04/09 07:47:52;;;;;;;83.18;57.10;;;;;;;8.07;100.00;102405.25;5052273;28;20465;-55
2023/04/09 07:50:17;;;;;;;80.20;56.28;;;;;;;8.22;100.00;102401.88;5052481;28;20028;-56
2023/04/09 07:52:42;;;;;;;90.18;56.08;;;;;;;8.35;100.00;102403.53;5052291;28;20048;-56
2023/04/09 07:55:08;;;;;;;76.55;55.05;;;;;;;8.38;100.00;102393.47;5052236;28;20025;-56
2023/04/09 07:57:33;;;;;;;75.50;56.28;;;;;;;8.34;100.00;102391.47;5052438;28;20025;-56
2023/04/09 07:59:58;;;;;;;75.90;55.65;;;;;;;8.28;100.00;102396.25;5052539;28;20025;-56
2023/04/09 08:02:24;;;;;;;77.15;54.45;;;;;;;8.18;100.00;102402.47;5051790;28;20083;-56
2023/04/09 08:04:50;;;;;;;78.32;55.08;;;;;;;8.18;100.00;102398.22;5052256;28;20051;-56
2023/04/09 08:07:15;;;;;;;76.75;54.70;;;;;;;8.33;100.00;102394.88;5051913;28;20109;-56
2023/04/09 08:09:40;;;;;;;77.55;55.42;;;;;;;8.41;100.00;102393.66;5052022;28;20053;-56
2023/04/09 08:12:06;;;;;;;78.35;53.50;;;;;;;8.61;100.00;102394.06;5052621;28;20373;-56
2023/04/09 08:14:31;;;;;;;73.65;53.40;;;;;;;9.02;100.00;102398.31;5051753;28;20032;-56
2023/04/09 08:16:56;;;;;;;75.97;53.85;;;;;;;9.48;100.00;102393.34;5051767;28;20049;-56
2023/04/09 08:19:22;;;;;;;72.63;53.47;;;;;;;9.74;99.38;102409.41;5052104;28;20025;-56
2023/04/09 08:21:48;;;;;;;72.45;52.90;;;;;;;9.79;96.81;102401.97;5051595;28;20115;-55
2023/04/09 08:24:14;;;;;;;71.45;52.15;;;;;;;10.08;96.90;102398.47;5051643;28;20025;-56
2023/04/09 08:26:41;;;;;;;71.40;53.05;;;;;;;10.58;96.24;102396.97;5052131;28;20025;-57
2023/04/09 08:29:07;;;;;;;69.68;51.17;;;;;;;10.57;93.12;102396.88;5052091;28;20041;-56
2023/04/09 08:31:33;;;;;;;70.97;51.50;;;;;;;10.73;93.19;102389.19;5051386;28;20037;-56
2023/04/09 08:33:58;;;;;;;67.95;49.92;;;;;;;10.80;93.05;102400.72;5052142;28;20021;-56
2023/04/09 08:36:25;;;;;;;67.47;51.55;;;;;;;10.86;93.69;102394.19;5051583;28;20425;-54
2023/04/09 08:38:51;;;;;;;68.70;51.22;;;;;;;10.90;93.10;102396.91;5051665;28;20429;-56
2023/04/09 08:41:19;;;;;;;67.38;51.85;;;;;;;10.77;92.16;102393.69;5052050;28;20028;-56
2023/04/09 08:43:45;;;;;;;;;;;;;;;11.06;96.55;102393.47;5051886;28;20037;-56
2023/04/09 08:46:11;;;;;;;73.55;52.78;;;;;;;10.65;94.06;102386.19;5052168;28;19915;-55
2023/04/09 08:48:41;;;;;;;67.25;50.22;;;;;;;10.59;94.04;102384.94;5052802;28;20465;-56
2023/04/09 08:51:06;;;;;;;68.30;50.60;;;;;;;10.52;92.79;102387.22;5054975;28;20071;-56
2023/04/09 08:53:32;;;;;;;68.32;51.22;;;;;;;10.68;94.27;102385.47;5055499;28;20021;-56
2023/04/09 08:55:58;;;;;;;69.18;51.67;;;;;;;10.78;93.91;102386.81;5055488;28;20112;-56
2023/04/09 08:58:24;;;;;;;65.07;52.05;;;;;;;11.40;94.81;102384.88;5054772;28;20116;-56
2023/04/09 09:00:49;;;;;;;65.50;49.30;;;;;;;11.94;90.45;102382.38;5055472;28;20115;-55
2023/04/09 09:03:15;;;;;;;66.90;49.78;;;;;;;12.25;87.19;102381.31;5054928;28;20036;-56
2023/04/09 09:05:44;;;;;;;66.28;49.17;;;;;;;12.46;87.23;102387.50;5054465;28;20024;-55
2023/04/09 09:08:22;;;;;;;64.68;48.97;;;;;;;12.29;84.70;102384.13;5055224;28;20357;-54
2023/04/09 09:10:48;;;;;;;63.65;49.28;;;;;;;12.28;84.93;102387.50;5054849;28;20360;-54
2023/04/09 09:13:26;;;;;;;64.65;51.05;;;;;;;12.40;86.39;102386.31;5054685;28;20024;-54
2023/04/09 09:15:55;;;;;;;66.32;50.35;;;;;;;12.10;84.51;102381.47;5055122;28;20039;-54
2023/04/09 09:18:41;;;;;;;65.20;50.55;;;;;;;12.24;86.96;102389.88;5054818;28;20104;-55
2023/04/09 09:21:15;;;;;;;63.03;49.88;;;;;;;12.01;84.20;102381.91;5054686;28;20037;-55
2023/04/09 09:23:41;;;;;;;64.07;47.72;;;;;;;12.14;84.32;102373.06;5054788;28;20029;-54
2023/04/09 09:26:15;;;;;;;65.53;51.08;;;;;;;12.24;83.39;102380.44;5054227;28;20373;-55
2023/04/09 09:28:41;;;;;;;63.97;48.33;;;;;;;12.65;84.01;102381.47;5054821;28;20090;-55
2023/04/09 09:31:11;;;;;;;63.60;48.58;;;;;;;12.85;81.52;102376.31;5054536;28;20025;-54
2023/04/09 09:33:36;;;;;;;63.35;49.55;;;;;;;12.52;79.55;102376.53;5053898;28;20025;-55
2023/04/09 09:36:05;;;;;;;64.63;49.88;;;;;;;12.75;81.80;102372.41;5054707;28;20035;-55
2023/04/09 09:38:31;;;;;;;61.90;47.17;;;;;;;12.86;78.27;102375.50;5054071;28;20021;-55
2023/04/09 09:40:57;;;;;;;59.53;47.22;;;;;;;12.74;78.34;102373.22;5053508;28;20075;-55
2023/04/09 09:43:23;;;;;;;62.58;47.75;;;;;;;12.84;78.78;102365.06;5054222;28;20468;-54
2023/04/09 09:45:48;;;;;;;60.38;47.72;;;;;;;13.13;79.96;102362.88;5054021;28;20056;-55
2023/04/09 09:48:14;;;;;;;60.58;47.58;;;;;;;13.31;77.25;102360.19;5053874;28;20056;-55
2023/04/09 09:50:41;;;;;;;59.80;45.50;;;;;;;13.98;76.53;102353.47;5054231;28;20031;-55
2023/04/09 09:53:10;;;;;;;63.25;49.25;;;;;;;14.51;75.97;102354.59;5053980;28;20029;-55
2023/04/09 09:55:42;;;;;;;55.17;44.95;;;;;;;14.84;70.73;102352.38;5053491;28;20075;-56
2023/04/09 09:58:18;;;;;;;51.88;42.25;;;;;;;15.21;67.86;102351.09;5054589;28;20079;-55
2023/04/09 10:00:46;;;;;;;54.67;42.10;;;;;;;15.35;66.29;102346.38;5053547;28;20036;-55
2023/04/09 10:03:14;;;;;;;51.42;41.38;;;;;;;15.18;65.04;102344.91;5053668;28;20047;-56
2023/04/09 10:05:40;;;;;;;51.78;41.80;;;;;;;14.85;65.94;102346.38;5054006;28;20033;-56
2023/04/09 10:08:06;;;;;;;48.22;38.70;;;;;;;15.46;65.13;102337.22;5053344;28;20031;-55
2023/04/09 10:10:32;;;;;;;45.60;36.50;;;;;;;15.68;61.71;102332.72;5053765;28;20032;-54
2023/04/09 10:12:58;;;;;;;43.25;35.63;;;;;;;15.80;59.10;102335.72;5053632;28;20475;-55
2023/04/09 10:15:25;;;;;;;41.35;34.90;;;;;;;15.25;61.14;102334.78;5053250;28;20025;-54
2023/04/09 10:17:50;;;;;;;43.03;35.40;;;;;;;15.89;59.41;102336.88;5053951;28;20469;-55
2023/04/09 10:20:21;;;;;;;38.67;33.15;;;;;;;16.61;56.35;102325.13;5053297;28;20289;-56
2023/04/09 10:22:50;;;;;;;35.70;30.50;;;;;;;16.68;54.91;102337.50;5053373;28;20064;-55
2023/04/09 10:25:16;;;;;;;38.30;31.63;;;;;;;17.07;56.83;102329.03;5053374;28;20401;-55
2023/04/09 10:27:45;;;;;;;35.30;29.85;;;;;;;17.98;54.22;102322.56;5053578;28;20060;-55
2023/04/09 10:30:30;;;;;;;37.15;30.55;;;;;;;19.29;53.79;102324.31;5053183;28;20017;-54
2023/04/09 10:32:56;;;;;;;33.25;29.30;;;;;;;18.91;47.14;102321.88;5053720;28;20021;-54
2023/04/09 10:35:25;;;;;;;44.75;36.50;;;;;;;19.61;50.29;102317.84;5053043;28;20017;-56
2023/04/09 10:37:51;;;;;;;42.92;36.78;;;;;;;20.20;47.91;102315.22;5053147;28;20025;-55
2023/04/09 10:40:20;;;;;;;24.75;21.08;;;;;;;19.23;43.35;102319.84;5053376;28;20135;-56
2023/04/09 10:42:46;;;;;;;25.95;21.40;;;;;;;18.34;45.04;102308.56;5053491;28;20036;-56
2023/04/09 10:45:13;;;;;;;27.98;24.85;;;;;;;18.33;47.40;102304.19;5053153;28;20025;-56
2023/04/09 10:47:41;;;;;;;29.10;25.73;;;;;;;18.32;48.68;102304.16;5052759;28;20036;-56
2023/04/09 10:50:23;;;;;;;31.58;26.23;;;;;;;18.27;48.07;102301.47;5053193;28;20070;-56
2023/04/09 10:52:53;;;;;;;30.17;26.13;;;;;;;17.40;48.41;102302.09;5053317;28;20024;-49
2023/04/09 10:55:40;;;;;;;26.55;22.33;;;;;;;16.77;50.61;102292.59;5052726;28;20040;-53
2023/04/09 10:58:06;;;;;;;;;;;;;;;16.92;53.07;102299.97;5052730;28;20017;-53
2023/04/09 11:00:36;;;;;;;31.50;26.95;;;;;;;15.43;54.46;102298.16;5052804;28;20375;-57
2023/04/09 11:03:01;;;;;;;33.80;28.42;;;;;;;15.51;54.36;102300.13;5052737;28;20045;-56
2023/04/09 11:05:37;;;;;;;31.40;27.83;;;;;;;16.14;55.32;102296.91;5052198;28;20389;-53
2023/04/09 11:08:11;;;;;;;29.85;25.88;;;;;;;16.74;51.86;102288.19;5052976;28;20036;-55